Hettinger, North Dakota
Current Conditions -  °F | °C
As of 9:53 AM on Friday 28 Nov 2014 (Local Time) from KHEI Reporting Station
Clear Clear  
Wind Chill: 27°   Ceiling: Unl
Heat Index: 32°   Visibility: 10mi
Dew Point: 25°   Wind: 5mph
Humidity: 75%   Direction: 120°ESE
Pressure: 29.63"   Gusts: NA
Location:  46°N, 102.64°W
Report Text: KHEI 281653Z AUTO 12004KT 10SM CLR 00/M04 A2963 RMK AO2 SLP064 T00001039
Loading
Personal Weather Stations






























Interactive Weather Map New forecast layout! Learn more

10-Day Weather Forecast

Advertisements
Track Severe Weather on mobile